ADDS METAR Data INFO
IDs: Format: Raw Decoded Include TAF

Data at: 1017 UTC 14 Dec 2017

KPBX 140955Z AUTO 30008G11KT 10SM BKN032 OVC038 04/M01 A2972 RMK AO2 T00431015
KPBX 140935Z AUTO 26009G19KT 10SM BKN036 OVC041 05/M02 A2970 RMK AO2 T00521020
KPBX 140915Z AUTO 26010G17KT 210V290 10SM OVC042 05/M02 A2969 RMK AO2 T00541025
KPBX 140855Z AUTO 24011G18KT 210V270 10SM BKN044 OVC050 06/M03 A2968 RMK AO2 T00551030
KPBX 140835Z AUTO 24010G17KT 220V280 10SM OVC046 06/M03 A2967 RMK AO2 T00571033
KPBX 140815Z AUTO 25007G19KT 10SM OVC046 06/M04 A2966 RMK AO2 T00581040
KPBX 140755Z AUTO 24008G14KT 220V280 10SM OVC046 06/M04 A2966 RMK AO2 T00601044
KPBX 140735Z AUTO 24012G19KT 210V270 10SM OVC048 06/M04 A2964 RMK AO2 T00601043
KPBX 140715Z AUTO 25008G21KT 220V280 10SM OVC050 06/M05 A2963 RMK AO2 T00621046
KPBX 140655Z AUTO 23010G15KT 190V280 10SM OVC050 06/M05 A2962 RMK AO2 T00631047
KPBX 140635Z AUTO 23012G20KT 200V270 10SM OVC050 07/M05 A2961 RMK AO2 T00651049
KPBX 140615Z AUTO 24008G21KT 200V260 10SM BKN048 07/M05 A2961 RMK AO2 T00661050
KPBX 140555Z AUTO 23007G19KT 200V260 10SM OVC048 07/M05 A2960 RMK AO2 T00651055 10069 20031
KPBX 140535Z AUTO 23011G23KT 200V280 10SM BKN046 OVC070 07/M06 A2960 RMK AO2 T00681059
KPBX 140515Z AUTO 24006G17KT 210V280 10SM SCT050 OVC070 07/M06 A2960 RMK AO2 T00671064
KPBX 140455Z AUTO 22011G18KT 10SM BKN055 OVC070 07/M07 A2959 RMK AO2 T00681066 400691077
KPBX 140435Z AUTO 21014G24KT 10SM SCT055 OVC070 07/M07 A2958 RMK AO2 T00661071
KPBX 140415Z AUTO 22008G18KT 180V250 10SM SCT055 OVC070 07/M07 A2959 RMK AO2 T00651075
KPBX 140355Z AUTO 21010G19KT 150V250 10SM SCT060 BKN070 06/M08 A2959 RMK AO2 T00601080
KPBX 140335Z AUTO 22007G20KT 190V260 10SM OVC060 06/M08 A2959 RMK AO2 T00621082
KPBX 140315Z AUTO 22009G20KT 160V240 10SM OVC060 06/M09 A2959 RMK AO2 T00621086
KPBX 140255Z AUTO 22012G18KT 160V240 10SM OVC050 06/M09 A2959 RMK AO2 T00611090
KPBX 140235Z AUTO 21007G23KT 180V270 10SM OVC050 06/M09 A2959 RMK AO2 T00621095
KPBX 140215Z AUTO 21014G25KT 150V240 10SM OVC050 06/M10 A2959 RMK AO2 T00611099
KPBX 140155Z AUTO 21013G23KT 10SM OVC050 06/M10 A2959 RMK AO2 T00611103
KPBX 140135Z AUTO 22011G23KT 180V250 10SM OVC050 06/M11 A2960 RMK AO2 T00611108
KPBX 140115Z AUTO 21010G22KT 180V240 10SM OVC050 06/M11 A2959 RMK AO2 T00581113
KPBX 140055Z AUTO 22008G16KT 10SM BKN060 BKN070 05/M12 A2958 RMK AO2 T00511116
KPBX 140030Z AUTO 22007KT 180V240 10SM BKN060 04/M12 A2959 RMK AO2 T00411121
KPBX 140015Z AUTO 19005G16KT 10SM SCT060 04/M12 A2958 RMK AO2 T00411120
KPBX 132355Z AUTO 18004KT 10SM CLR 03/M12 A2958 RMK AO2 T00311116 10040 20015
KPBX 132335Z AUTO 20003KT 10SM CLR 03/M11 A2957 RMK AO2 T00311115
KPBX 132315Z AUTO 21004KT 10SM CLR 03/M11 A2956 RMK AO2 T00291114
KPBX 132255Z AUTO 19007KT 10SM CLR 03/M12 A2953 RMK AO2 T00331116
KPBX 132235Z AUTO 18006KT 10SM SCT100 BKN120 03/M12 A2956 RMK AO2 T00321116
KPBX 132215Z AUTO 18007KT 10SM OVC100 03/M12 A2956 RMK AO2 T00321116
KPBX 132155Z AUTO 16009G15KT 10SM BKN090 BKN110 03/M12 A2956 RMK AO2 T00311116
KPBX 132135Z AUTO 19005G14KT 10SM BKN090 OVC110 03/M11 A2958 RMK AO2 T00301114
KPBX 132115Z AUTO 18009G15KT 10SM OVC080 03/M11 A2960 RMK AO2 T00301113
KPBX 132055Z AUTO 17010G15KT 140V200 10SM SCT060 BKN080 BKN120 03/M11 A2961 RMK AO2 T00311111
KPBX 132035Z AUTO 17008G15KT 140V200 10SM BKN060 BKN070 OVC120 03/M12 A2964 RMK AO2 T00341116
KPBX 132015Z AUTO 20004KT 10SM OVC060 04/M12 A2966 RMK AO2 T00361122
KPBX 131955Z AUTO 19004KT 10SM OVC060 03/M13 A2967 RMK AO2 T00341126
KPBX 131935Z AUTO 21005KT 10SM OVC060 03/M13 A2969 RMK AO2 T00321130
KPBX 131915Z AUTO 20005KT 10SM SCT070 03/M13 A2970 RMK AO2 T00341135
KPBX 131855Z AUTO 19007KT 10SM CLR 03/M14 A2972 RMK AO2 T00321140
KPBX 131835Z AUTO 23009G14KT 180V260 10SM CLR 03/M14 A2974 RMK AO2 T00271144
KPBX 131815Z AUTO 21006KT 10SM SCT110 02/M15 A2975 RMK AO2 T00241146
KPBX 131755Z AUTO 19007KT 160V230 10SM SCT110 02/M15 A2978 RMK AO2 T00161152 10016 21076
KPBX 131735Z AUTO 20008KT 150V240 10SM CLR 01/M15 A2980 RMK AO2 T00101148
KPBX 131715Z AUTO 20006KT 10SM CLR 00/M15 A2982 RMK AO2 T00011153
KPBX 131655Z AUTO 19007KT 160V230 10SM CLR 00/M15 A2984 RMK AO2 T10011152
KPBX 131635Z AUTO 18007KT 10SM CLR M01/M15 A2986 RMK AO2 T10101152
KPBX 131615Z AUTO 18004KT 10SM CLR M02/M15 A2988 RMK AO2 T10171148
KPBX 131555Z AUTO 20004KT 10SM CLR M02/M14 A2990 RMK AO2 T10231145
KPBX 131535Z AUTO 22005KT 10SM CLR M03/M14 A2991 RMK AO2 T10281141
KPBX 131515Z AUTO 19003KT 10SM CLR M03/M14 A2992 RMK AO2 T10331138
KPBX 131455Z AUTO 19006KT 150V220 10SM CLR M04/M14 A2993 RMK AO2 T10441138
KPBX 131435Z AUTO 19006KT 10SM SCT033 M05/M13 A2994 RMK AO2 T10481135
KPBX 131415Z AUTO 19003KT 10SM SCT033 M05/M14 A2995 RMK AO2 T10541139
KPBX 131355Z AUTO 17005KT 10SM BKN035 M06/M14 A2994 RMK AO2 T10591138
KPBX 131335Z AUTO 18004KT 10SM BKN037 M06/M14 A2995 RMK AO2 T10651139
KPBX 131315Z AUTO 18005KT 10SM SCT037 M07/M14 A2996 RMK AO2 T10681141
KPBX 131255Z AUTO 18003KT 10SM CLR M07/M14 A2996 RMK AO2 T10731140
KPBX 131235Z AUTO 00000KT 10SM CLR M07/M14 A2996 RMK AO2 T10741141
KPBX 131215Z AUTO 00000KT 10SM CLR M07/M14 A2996 RMK AO2 T10751140
KPBX 131155Z AUTO 00000KT 10SM CLR M08/M14 A2996 RMK AO2 T10761139 11067 21077
KPBX 131135Z AUTO 00000KT 10SM CLR M08/M14 A2996 RMK AO2 T10761139
KPBX 131115Z AUTO 00000KT 10SM CLR M07/M14 A2996 RMK AO2 T10751140
KPBX 131055Z AUTO 23003KT 10SM CLR M07/M14 A2995 RMK AO2 T10751142
KPBX 131035Z AUTO 23003KT 10SM CLR M07/M14 A2996 RMK AO2 T10741145
KPBX 131015Z AUTO 23003KT 10SM CLR M07/M14 A2996 RMK AO2 T10731145
KPBX 130955Z AUTO 24004KT 10SM CLR M07/M14 A2995 RMK AO2 T10731145
KPBX 130935Z AUTO 23003KT 10SM CLR M07/M14 A2996 RMK AO2 T10731145
KPBX 130915Z AUTO 24004KT 10SM CLR M07/M14 A2996 RMK AO2 T10731145
KPBX 130855Z AUTO 25004KT 10SM CLR M07/M14 A2996 RMK AO2 T10731144
KPBX 130835Z AUTO 23003KT 10SM CLR M07/M14 A2996 RMK AO2 T10731143
KPBX 130815Z AUTO 24003KT 10SM CLR M07/M14 A2996 RMK AO2 T10731145
KPBX 130755Z AUTO 26005KT 10SM CLR M07/M14 A2996 RMK AO2 T10701143
KPBX 130735Z AUTO 25004KT 10SM CLR M07/M14 A2996 RMK AO2 T10711141
KPBX 130715Z AUTO 26006KT 10SM CLR M07/M14 A2996 RMK AO2 T10711140
KPBX 130655Z AUTO 26008KT 10SM CLR M07/M14 A2996 RMK AO2 T10711140
KPBX 130635Z AUTO 26005KT 10SM CLR M07/M14 A2995 RMK AO2 T10721140
KPBX 130615Z AUTO 27005KT 10SM CLR M07/M14 A2995 RMK AO2 T10691140
KPBX 130555Z AUTO 28007KT 10SM SCT040 M07/M14 A2995 RMK AO2 T10671141 11034 21067
KPBX 130535Z AUTO 27008KT 240V300 10SM SCT040 M06/M14 A2996 RMK AO2 T10651141
KPBX 130515Z AUTO 27010G15KT 10SM SCT042 M06/M14 A2996 RMK AO2 T10621142
KPBX 130455Z AUTO 28011G15KT 10SM SCT044 M06/M14 A2996 RMK AO2 T10611142 401091061
KPBX 130435Z AUTO 28010KT 10SM BKN044 M06/M14 A2996 RMK AO2 T10581142
KPBX 130410Z AUTO 29013G18KT 10SM OVC046 M05/M14 A2996 RMK AO2 T10551143
KPBX 130355Z AUTO 30015G18KT 10SM BKN046 M05/M14 A2996 RMK AO2 T10531142
KPBX 130335Z AUTO 29012G15KT 10SM OVC048 M05/M14 A2996 RMK AO2 T10511141
KPBX 130315Z AUTO 28011G19KT 10SM OVC050 M05/M14 A2995 RMK AO2 T10481140
KPBX 130255Z AUTO 30012G17KT 10SM OVC050 M05/M14 A2995 RMK AO2 T10461139
KPBX 130235Z AUTO 29013G18KT 10SM OVC050 M04/M14 A2994 RMK AO2 T10451139
KPBX 130220Z AUTO 30007G19KT 10SM OVC050 M04/M14 A2994 RMK AO2 T10431137
KPBX 130155Z AUTO 28012G19KT 10SM BKN050 OVC060 M04/M14 A2994 RMK AO2 T10401136
KPBX 130135Z AUTO 28011G19KT 250V310 10SM OVC050 M04/M13 A2994 RMK AO2 T10401135
KPBX 130115Z AUTO 31011G17KT 10SM OVC050 M04/M13 A2993 RMK AO2 T10381134
KPBX 130055Z AUTO 31009KT 10SM OVC050 M04/M13 A2993 RMK AO2 T10361135
KPBX 130035Z AUTO 28009G14KT 10SM OVC060 M03/M14 A2992 RMK AO2 T10351136
KPBX 130015Z AUTO 28010G18KT 250V310 10SM BKN060 OVC070 M03/M14 A2992 RMK AO2 T10351140
KPBX 122355Z AUTO 28013G17KT 10SM BKN060 M03/M14 A2991 RMK AO2 T10351140 10010 21035
KPBX 122335Z AUTO 29010G19KT 10SM BKN060 M03/M14 A2990 RMK AO2 T10321140
KPBX 122315Z AUTO 30014G22KT 10SM BKN060 M03/M14 A2990 RMK AO2 T10311137
KPBX 122255Z AUTO 30011G23KT 10SM OVC060 M03/M13 A2989 RMK AO2 T10281135
KPBX 122235Z AUTO 32015G24KT 270V340 10SM OVC060 M03/M13 A2988 RMK AO2 T10261134